Rush — ZGAV9 — position and weather

sailwx.info

Track history (hours):
 
Tides and Currents Weather Stations Pressure Air Temp Water Temp Dewpoint Dewpoint Depression Visibility Wind Speed Wind Dir Waves Ship Positions

Rush

Last reported at 2017-Jun-07 11:08 UTC. Time now 2017-Jun-25 10:22 UTC.
Position N 41°08' E 009°30'.
Warning: this ship's position is 17 days out of date.

Length 50 m; draft 1.8 m.

Type: High speed craft. MMSI: 319035300.

Date/timePositionNaut miles runAvg speedWind from/ knotsBaromVisibWave heightAir tempDewpointWater temp
2017-Jun-07 11:08N 41°08' E 009°30'0 0.0
2017-Jun-07 06:06N 41°08' E 009°30'0 0.0
2017-Jun-06 04:48N 41°08' E 009°30'0 0.0
2017-Jun-06 03:48N 41°08' E 009°30'0 0.0
2017-Jun-06 03:24N 41°08' E 009°30'0 0.0
2017-Jun-06 01:09N 41°08' E 009°30'0 0.0
2017-Jun-05 22:06N 41°08' E 009°30'0 0.0
2017-Jun-05 21:42N 41°08' E 009°30'0 0.0
2017-Jun-05 19:24N 41°08' E 009°30'0 0.0
2017-Jun-05 09:27N 41°08' E 009°30'0 0.0
2017-Jun-04 15:43N 41°08' E 009°30'0 0.0
2017-Jun-04 15:20N 41°08' E 009°30'3 0.8
2017-Jun-04 11:18N 41°11' E 009°28'0 0.1
2017-Jun-04 10:58N 41°11' E 009°28'0 0.0
2017-Jun-04 10:30N 41°11' E 009°28'0 0.0
2017-Jun-04 09:58N 41°11' E 009°28'1 1.1
2017-Jun-04 09:23N 41°12' E 009°29'717.2
2017-Jun-04 09:00N 41°07' E 009°36'6 0.7
2017-Jun-04 00:23N 41°02' E 009°33'0 0.0
2017-Jun-03 23:56N 41°02' E 009°33'0 0.0
2017-Jun-03 20:56N 41°02' E 009°33'0 0.0
2017-Jun-03 19:37N 41°02' E 009°33'0 0.0
2017-Jun-03 19:07N 41°02' E 009°33'0 0.0
2017-Jun-03 19:00N 41°02' E 009°33'4 6.6
2017-Jun-03 18:25N 41°02' E 009°38'13 1.4
2017-Jun-03 09:00N 40°50' E 009°44'4 0.3
2017-Jun-02 19:59N 40°52' E 009°40'0 0.1
2017-Jun-02 19:24N 40°52' E 009°40'0 0.0
2017-Jun-02 18:57N 40°52' E 009°40'0 0.0
2017-Jun-02 18:30N 40°52' E 009°40'0 0.3
2017-Jun-02 17:57N 40°52' E 009°40'814.7
2017-Jun-02 17:25N 40°45' E 009°45'921.3
2017-Jun-02 16:59N 40°36' E 009°49'1020.3
2017-Jun-02 16:30N 40°26' E 009°48'918.4
2017-Jun-02 16:00N 40°19' E 009°41'9 1.4
2017-Jun-02 09:48N 40°11' E 009°38'1 3.8
2017-Jun-02 09:29N 40°10' E 009°39'613.3
2017-Jun-02 09:00N 40°05' E 009°45'916.3
2017-Jun-02 08:29N 39°57' E 009°42'0 1.0
2017-Jun-02 07:59N 39°56' E 009°42'0 0.0
2017-Jun-02 07:30N 39°56' E 009°42'0 0.0
2017-Jun-02 06:56N 39°56' E 009°42'0 0.0
2017-Jun-02 06:29N 39°56' E 009°42'0 0.0
2017-Jun-02 05:59N 39°56' E 009°42'0 0.0
2017-Jun-02 05:24N 39°56' E 009°42'0 0.0
2017-Jun-02 05:00N 39°56' E 009°42'0 0.0
2017-Jun-02 04:23N 39°56' E 009°42'0 0.0
2017-Jun-02 03:59N 39°56' E 009°42'0 0.0
2017-Jun-02 03:30N 39°56' E 009°42'0 0.0
2017-Jun-02 02:54N 39°56' E 009°42'0 0.0
2017-Jun-02 02:23N 39°56' E 009°42'0 0.0
2017-Jun-02 01:58N 39°56' E 009°42'0 0.0
2017-Jun-02 01:30N 39°56' E 009°42'0 0.0
2017-Jun-02 00:57N 39°56' E 009°42'0 0.0
2017-Jun-02 00:30N 39°56' E 009°42'0 0.0
2017-Jun-01 23:51N 39°56' E 009°42'0 0.0
2017-Jun-01 23:30N 39°56' E 009°42'0 0.0
2017-Jun-01 22:56N 39°56' E 009°42'0 0.0
2017-Jun-01 22:29N 39°56' E 009°42'0 0.0
2017-Jun-01 21:59N 39°56' E 009°42'0 0.0
2017-Jun-01 21:30N 39°56' E 009°42'0 0.0
2017-Jun-01 21:00N 39°56' E 009°42'0 0.0
2017-Jun-01 20:24N 39°56' E 009°42'0 0.0
2017-Jun-01 19:59N 39°56' E 009°42'0 0.0
2017-Jun-01 19:24N 39°56' E 009°42'0 0.0
2017-Jun-01 19:00N 39°56' E 009°42'5 9.5
2017-Jun-01 18:30N 40°01' E 009°44'14 7.1
2017-Jun-01 16:35N 40°14' E 009°38'0 0.1
2017-Jun-01 16:28N 40°14' E 009°38'0 0.1
2017-Jun-01 15:58N 40°14' E 009°38'0 0.0
2017-Jun-01 15:29N 40°14' E 009°38'4 5.2
2017-Jun-01 14:40N 40°10' E 009°40'210.6
2017-Jun-01 14:27N 40°08' E 009°41'9 9.2
2017-Jun-01 13:30N 40°16' E 009°40'713.5
2017-Jun-01 12:57N 40°22' E 009°46'612.8
2017-Jun-01 12:30N 40°27' E 009°51'612.6
2017-Jun-01 11:59N 40°34' E 009°50'713.0
2017-Jun-01 11:29N 40°40' E 009°50'918.6
2017-Jun-01 10:59N 40°50' E 009°49'1020.6
2017-Jun-01 10:30N 40°58' E 009°44'918.6
2017-Jun-01 10:00N 41°06' E 009°37'612.6
2017-Jun-01 09:30N 41°09' E 009°30'0 0.0
2017-May-31 21:35N 41°08' E 009°30'0 0.0
2017-May-31 21:23N 41°08' E 009°30'0 0.0
2017-May-31 15:47N 41°08' E 009°30'0 0.0
2017-May-31 15:29N 41°08' E 009°30'0 0.0
2017-May-31 14:59N 41°08' E 009°30'0 0.0
2017-May-31 14:29N 41°08' E 009°30'0 0.0
2017-May-31 04:02N 41°08' E 009°30'0 0.1
2017-May-31 03:59N 41°08' E 009°30'0 0.0
2017-May-30 11:56N 41°08' E 009°30'0 0.0
2017-May-30 11:20N 41°08' E 009°30'0 0.0
2017-May-30 02:14N 41°08' E 009°30'0 0.0
2017-May-30 00:02N 41°08' E 009°30'0 0.0
2017-May-29 23:56N 41°08' E 009°30'0 0.0
2017-May-29 21:29N 41°08' E 009°30'0 0.0
2017-May-29 11:11N 41°08' E 009°30'  
Track history (hours):
 
Tides and Currents Weather Stations Pressure Air Temp Water Temp Dewpoint Dewpoint Depression Visibility Wind Speed Wind Dir Waves Ship Positions

Rush

Last reported at 2017-Jun-07 11:08 UTC. Time now 2017-Jun-25 10:22 UTC.
Position N 41°08' E 009°30'.
Warning: this ship's position is 17 days out of date.

Length 50 m; draft 1.8 m.

Type: High speed craft. MMSI: 319035300.

Date/timePositionNaut miles runAvg speedWind from/ knotsBaromVisibWave heightAir tempDewpointWater temp
2017-Jun-07 11:08N 41°08' E 009°30'0 0.0
2017-Jun-07 06:06N 41°08' E 009°30'0 0.0
2017-Jun-06 04:48N 41°08' E 009°30'0 0.0
2017-Jun-06 03:48N 41°08' E 009°30'0 0.0
2017-Jun-06 03:24N 41°08' E 009°30'0 0.0
2017-Jun-06 01:09N 41°08' E 009°30'0 0.0
2017-Jun-05 22:06N 41°08' E 009°30'0 0.0
2017-Jun-05 21:42N 41°08' E 009°30'0 0.0
2017-Jun-05 19:24N 41°08' E 009°30'0 0.0
2017-Jun-05 09:27N 41°08' E 009°30'0 0.0
2017-Jun-04 15:43N 41°08' E 009°30'0 0.0
2017-Jun-04 15:20N 41°08' E 009°30'3 0.8
2017-Jun-04 11:18N 41°11' E 009°28'0 0.1
2017-Jun-04 10:58N 41°11' E 009°28'0 0.0
2017-Jun-04 10:30N 41°11' E 009°28'0 0.0
2017-Jun-04 09:58N 41°11' E 009°28'1 1.1
2017-Jun-04 09:23N 41°12' E 009°29'717.2
2017-Jun-04 09:00N 41°07' E 009°36'6 0.7
2017-Jun-04 00:23N 41°02' E 009°33'0 0.0
2017-Jun-03 23:56N 41°02' E 009°33'0 0.0
2017-Jun-03 20:56N 41°02' E 009°33'0 0.0
2017-Jun-03 19:37N 41°02' E 009°33'0 0.0
2017-Jun-03 19:07N 41°02' E 009°33'0 0.0
2017-Jun-03 19:00N 41°02' E 009°33'4 6.6
2017-Jun-03 18:25N 41°02' E 009°38'13 1.4
2017-Jun-03 09:00N 40°50' E 009°44'4 0.3
2017-Jun-02 19:59N 40°52' E 009°40'0 0.1
2017-Jun-02 19:24N 40°52' E 009°40'0 0.0
2017-Jun-02 18:57N 40°52' E 009°40'0 0.0
2017-Jun-02 18:30N 40°52' E 009°40'0 0.3
2017-Jun-02 17:57N 40°52' E 009°40'814.7
2017-Jun-02 17:25N 40°45' E 009°45'921.3
2017-Jun-02 16:59N 40°36' E 009°49'1020.3
2017-Jun-02 16:30N 40°26' E 009°48'918.4
2017-Jun-02 16:00N 40°19' E 009°41'9 1.4
2017-Jun-02 09:48N 40°11' E 009°38'1 3.8
2017-Jun-02 09:29N 40°10' E 009°39'613.3
2017-Jun-02 09:00N 40°05' E 009°45'916.3
2017-Jun-02 08:29N 39°57' E 009°42'0 1.0
2017-Jun-02 07:59N 39°56' E 009°42'0 0.0
2017-Jun-02 07:30N 39°56' E 009°42'0 0.0
2017-Jun-02 06:56N 39°56' E 009°42'0 0.0
2017-Jun-02 06:29N 39°56' E 009°42'0 0.0
2017-Jun-02 05:59N 39°56' E 009°42'0 0.0
2017-Jun-02 05:24N 39°56' E 009°42'0 0.0
2017-Jun-02 05:00N 39°56' E 009°42'0 0.0
2017-Jun-02 04:23N 39°56' E 009°42'0 0.0
2017-Jun-02 03:59N 39°56' E 009°42'0 0.0
2017-Jun-02 03:30N 39°56' E 009°42'0 0.0
2017-Jun-02 02:54N 39°56' E 009°42'0 0.0
2017-Jun-02 02:23N 39°56' E 009°42'0 0.0
2017-Jun-02 01:58N 39°56' E 009°42'0 0.0
2017-Jun-02 01:30N 39°56' E 009°42'0 0.0
2017-Jun-02 00:57N 39°56' E 009°42'0 0.0
2017-Jun-02 00:30N 39°56' E 009°42'0 0.0
2017-Jun-01 23:51N 39°56' E 009°42'0 0.0
2017-Jun-01 23:30N 39°56' E 009°42'0 0.0
2017-Jun-01 22:56N 39°56' E 009°42'0 0.0
2017-Jun-01 22:29N 39°56' E 009°42'0 0.0
2017-Jun-01 21:59N 39°56' E 009°42'0 0.0
2017-Jun-01 21:30N 39°56' E 009°42'0 0.0
2017-Jun-01 21:00N 39°56' E 009°42'0 0.0
2017-Jun-01 20:24N 39°56' E 009°42'0 0.0
2017-Jun-01 19:59N 39°56' E 009°42'0 0.0
2017-Jun-01 19:24N 39°56' E 009°42'0 0.0
2017-Jun-01 19:00N 39°56' E 009°42'5 9.5
2017-Jun-01 18:30N 40°01' E 009°44'14 7.1
2017-Jun-01 16:35N 40°14' E 009°38'0 0.1
2017-Jun-01 16:28N 40°14' E 009°38'0 0.1
2017-Jun-01 15:58N 40°14' E 009°38'0 0.0
2017-Jun-01 15:29N 40°14' E 009°38'4 5.2
2017-Jun-01 14:40N 40°10' E 009°40'210.6
2017-Jun-01 14:27N 40°08' E 009°41'9 9.2
2017-Jun-01 13:30N 40°16' E 009°40'713.5
2017-Jun-01 12:57N 40°22' E 009°46'612.8
2017-Jun-01 12:30N 40°27' E 009°51'612.6
2017-Jun-01 11:59N 40°34' E 009°50'713.0
2017-Jun-01 11:29N 40°40' E 009°50'918.6
2017-Jun-01 10:59N 40°50' E 009°49'1020.6
2017-Jun-01 10:30N 40°58' E 009°44'918.6
2017-Jun-01 10:00N 41°06' E 009°37'612.6
2017-Jun-01 09:30N 41°09' E 009°30'0 0.0
2017-May-31 21:35N 41°08' E 009°30'0 0.0
2017-May-31 21:23N 41°08' E 009°30'0 0.0
2017-May-31 15:47N 41°08' E 009°30'0 0.0
2017-May-31 15:29N 41°08' E 009°30'0 0.0
2017-May-31 14:59N 41°08' E 009°30'0 0.0
2017-May-31 14:29N 41°08' E 009°30'0 0.0
2017-May-31 04:02N 41°08' E 009°30'0 0.1
2017-May-31 03:59N 41°08' E 009°30'0 0.0
2017-May-30 11:56N 41°08' E 009°30'0 0.0
2017-May-30 11:20N 41°08' E 009°30'0 0.0
2017-May-30 02:14N 41°08' E 009°30'0 0.0
2017-May-30 00:02N 41°08' E 009°30'0 0.0
2017-May-29 23:56N 41°08' E 009°30'0 0.0
2017-May-29 21:29N 41°08' E 009°30'0 0.0
2017-May-29 11:11N 41°08' E 009°30'  

Dump ship's entire track history